Time;durP1;ratioP1;P1;durP2;ratioP2;P2;SDS_P1;SDS_P2;PMS_P1;PMS_P2;Temp;Humidity;BMP_temperature;BMP_pressure;BME280_temperature;BME280_humidity;BME280_pressure;Samples;Min_cycle;Max_cycle;Signal;HPM_P1;HPM_P2
2021/04/23 00:00:25;;;;;;;9.75;3.75;;;8.30;67.20;;;;;;3557933;40;20058;-61
2021/04/23 00:02:54;;;;;;;13.57;4.07;;;8.30;67.10;;;;;;3550097;40;20037;-61
2021/04/23 00:05:21;;;;;;;9.75;4.63;;;8.30;67.30;;;;;;3557950;40;20083;-62
2021/04/23 00:07:46;;;;;;;12.43;4.88;;;8.20;67.60;;;;;;3558556;40;20018;-61
2021/04/23 00:10:14;;;;;;;8.25;4.15;;;8.20;67.50;;;;;;3558258;40;20040;-62
2021/04/23 00:12:40;;;;;;;11.30;4.00;;;8.20;67.60;;;;;;3558523;40;20069;-62
2021/04/23 00:15:10;;;;;;;12.68;4.40;;;8.20;68.00;;;;;;3558601;40;20406;-62
2021/04/23 00:17:36;;;;;;;9.93;4.05;;;8.30;67.40;;;;;;3558416;40;20041;-61
2021/04/23 00:20:07;;;;;;;14.20;4.10;;;8.30;67.70;;;;;;3557953;40;20029;-63
2021/04/23 00:22:32;;;;;;;8.50;4.40;;;8.30;67.40;;;;;;3557797;40;20045;-61
2021/04/23 00:24:58;;;;;;;8.93;4.13;;;8.30;67.60;;;;;;3558507;40;20033;-61
2021/04/23 00:27:24;;;;;;;7.32;3.70;;;8.30;67.90;;;;;;3558208;40;20665;-61
2021/04/23 00:29:49;;;;;;;17.10;5.05;;;8.40;67.90;;;;;;3558046;40;20049;-63
2021/04/23 00:34:59;;;;;;;10.38;4.22;;;8.40;67.90;;;;;;3557934;40;20058;-62
2021/04/23 00:37:25;;;;;;;9.13;4.15;;;8.30;67.80;;;;;;3558255;40;20087;-61
2021/04/23 00:39:51;;;;;;;9.45;4.93;;;8.30;68.20;;;;;;3558000;40;20091;-61
2021/04/23 00:42:16;;;;;;;12.45;4.40;;;8.40;68.10;;;;;;3558552;40;20032;-61
2021/04/23 00:44:42;;;;;;;12.88;4.93;;;8.40;68.00;;;;;;3558240;40;20045;-61
2021/04/23 00:47:08;;;;;;;13.05;4.47;;;8.40;68.30;;;;;;3557938;40;20513;-61
2021/04/23 00:49:34;;;;;;;11.15;4.45;;;8.40;68.00;;;;;;3557715;40;20386;-61
2021/04/23 00:52:01;;;;;;;11.70;4.55;;;8.40;68.20;;;;;;3556098;40;20122;-62
2021/04/23 00:54:29;;;;;;;10.25;4.70;;;8.40;68.30;;;;;;3556305;40;20038;-61
2021/04/23 00:56:55;;;;;;;13.38;4.57;;;8.40;68.30;;;;;;3557793;40;20135;-62
2021/04/23 00:59:22;;;;;;;10.90;4.20;;;8.50;67.20;;;;;;3557735;40;20081;-62
2021/04/23 01:02:07;;;;;;;12.30;5.85;;;8.50;68.00;;;;;;3557422;40;20022;-61
2021/04/23 01:04:33;;;;;;;9.95;4.70;;;8.50;68.00;;;;;;3556166;40;20034;-61
2021/04/23 01:06:59;;;;;;;14.07;5.13;;;8.50;68.10;;;;;;3557636;40;20856;-61
2021/04/23 01:09:27;;;;;;;14.32;4.97;;;8.50;68.00;;;;;;3557537;40;20319;-62
2021/04/23 01:11:54;;;;;;;12.57;4.15;;;8.50;68.00;;;;;;3557513;40;20865;-61
2021/04/23 01:14:21;;;;;;;8.93;4.60;;;8.50;68.40;;;;;;3558082;40;20093;-61
2021/04/23 01:16:49;;;;;;;10.85;4.07;;;8.50;68.50;;;;;;3556148;40;20080;-62
2021/04/23 01:19:18;;;;;;;13.95;4.38;;;8.60;68.50;;;;;;3556277;40;20064;-61
2021/04/23 01:21:45;;;;;;;13.05;4.82;;;8.60;68.30;;;;;;3556452;40;20041;-62
2021/04/23 01:24:11;;;;;;;9.10;5.32;;;8.60;68.80;;;;;;3556419;40;20095;-62
2021/04/23 01:26:43;;;;;;;15.77;4.85;;;8.60;68.60;;;;;;3557684;40;20458;-62
2021/04/23 01:29:12;;;;;;;13.10;5.25;;;8.60;68.10;;;;;;3557136;40;20367;-61
2021/04/23 01:31:40;;;;;;;12.73;5.00;;;8.60;68.20;;;;;;3557510;40;20179;-61
2021/04/23 01:34:11;;;;;;;11.02;4.35;;;8.60;68.20;;;;;;3557610;40;20037;-62
2021/04/23 01:36:38;;;;;;;13.85;4.85;;;8.50;68.00;;;;;;3558289;40;20034;-62
2021/04/23 01:39:07;;;;;;;13.10;5.28;;;8.50;68.20;;;;;;3558129;40;20033;-61
2021/04/23 01:41:33;;;;;;;14.88;4.65;;;8.50;68.00;;;;;;3555312;40;20512;-61
2021/04/23 01:44:00;;;;;;;13.02;4.80;;;8.40;68.00;;;;;;3556992;40;20026;-61
2021/04/23 01:46:25;;;;;;;17.33;5.10;;;8.40;68.50;;;;;;3557690;40;20033;-62
2021/04/23 01:48:51;;;;;;;9.98;4.40;;;8.30;68.70;;;;;;3559997;40;20036;-61
2021/04/23 01:51:17;;;;;;;12.00;4.55;;;8.20;69.10;;;;;;3558604;40;20029;-62
2021/04/23 01:53:43;;;;;;;18.83;5.50;;;8.20;69.40;;;;;;3559600;40;20029;-62
2021/04/23 01:56:09;;;;;;;11.82;4.82;;;8.20;69.60;;;;;;3558280;40;20026;-61
2021/04/23 01:58:37;;;;;;;11.98;4.57;;;8.10;69.30;;;;;;3557770;40;20045;-60
2021/04/23 02:01:05;;;;;;;10.25;4.78;;;8.10;69.40;;;;;;3556519;40;20029;-62
2021/04/23 02:03:31;;;;;;;10.52;4.32;;;8.00;69.70;;;;;;3560001;40;20034;-62
2021/04/23 02:05:57;;;;;;;12.93;5.05;;;8.00;70.00;;;;;;3559144;40;20058;-61
2021/04/23 02:08:25;;;;;;;15.02;5.45;;;8.00;70.00;;;;;;3559961;40;20895;-61
2021/04/23 02:11:04;;;;;;;8.30;4.70;;;7.90;70.20;;;;;;3558099;40;20056;-61
2021/04/23 02:13:30;;;;;;;12.15;4.93;;;7.80;70.50;;;;;;3558278;40;20038;-63
2021/04/23 02:15:57;;;;;;;13.35;5.13;;;7.70;70.90;;;;;;3559587;40;20524;-62
2021/04/23 02:18:24;;;;;;;14.38;5.13;;;7.70;71.30;;;;;;3559551;40;20038;-62
2021/04/23 02:20:50;;;;;;;14.63;4.75;;;7.70;71.40;;;;;;3558655;40;20131;-61
2021/04/23 02:23:19;;;;;;;14.25;4.90;;;7.60;71.90;;;;;;3560066;40;20505;-61
2021/04/23 02:25:46;;;;;;;10.85;4.55;;;7.60;72.20;;;;;;3559831;40;20119;-61
2021/04/23 02:28:12;;;;;;;13.75;4.57;;;7.60;71.90;;;;;;3560162;40;20033;-62
2021/04/23 02:30:43;;;;;;;12.65;5.60;;;7.60;71.80;;;;;;3559896;40;20026;-62
2021/04/23 02:33:12;;;;;;;13.35;5.50;;;7.60;72.00;;;;;;3559896;40;20028;-62
2021/04/23 02:35:39;;;;;;;9.52;4.90;;;7.70;72.10;;;;;;3560164;40;20304;-61
2021/04/23 02:38:06;;;;;;;10.70;4.95;;;7.70;72.00;;;;;;3558747;40;20038;-63
2021/04/23 02:40:32;;;;;;;13.10;5.15;;;7.70;72.20;;;;;;3559621;40;20025;-62
2021/04/23 02:43:01;;;;;;;13.32;4.68;;;7.70;72.20;;;;;;3559735;40;20131;-61
2021/04/23 02:45:32;;;;;;;14.65;5.25;;;7.80;71.80;;;;;;3559555;40;20112;-62
2021/04/23 02:47:58;;;;;;;15.05;5.03;;;7.70;71.80;;;;;;3558953;40;20037;-61
2021/04/23 02:50:27;;;;;;;14.25;5.25;;;7.70;71.80;;;;;;3559216;40;20038;-61
2021/04/23 02:52:54;;;;;;;15.65;4.75;;;7.70;72.10;;;;;;3559630;40;20067;-61
2021/04/23 02:55:20;;;;;;;12.40;5.22;;;7.70;72.20;;;;;;3559160;40;20041;-61
2021/04/23 02:58:17;;;;;;;17.85;5.40;;;7.80;72.50;;;;;;3558954;40;20135;-62
2021/04/23 03:00:46;;;;;;;11.30;4.50;;;7.80;72.10;;;;;;3556855;40;20036;-62
2021/04/23 03:03:12;;;;;;;13.65;4.75;;;7.80;71.70;;;;;;3558644;40;20033;-61
2021/04/23 03:05:40;;;;;;;14.18;5.70;;;7.80;71.50;;;;;;3559038;40;20160;-61
2021/04/23 03:08:06;;;;;;;15.93;5.38;;;7.90;71.80;;;;;;3559256;40;20060;-61
2021/04/23 03:10:36;;;;;;;18.60;5.40;;;7.80;71.50;;;;;;3559385;40;20044;-61
2021/04/23 03:13:06;;;;;;;13.55;4.90;;;7.80;71.80;;;;;;3559010;40;20688;-62
2021/04/23 03:15:32;;;;;;;14.00;5.07;;;7.80;71.80;;;;;;3559452;40;20044;-61
2021/04/23 03:17:59;;;;;;;16.75;5.20;;;7.90;71.60;;;;;;3559129;40;20026;-61
2021/04/23 03:20:26;;;;;;;16.17;5.05;;;7.90;71.80;;;;;;3557553;40;20041;-61
2021/04/23 03:22:53;;;;;;;22.10;6.07;;;7.90;71.30;;;;;;3559335;40;20033;-61
2021/04/23 03:25:19;;;;;;;14.95;5.57;;;7.90;71.90;;;;;;3558972;40;20026;-61
2021/04/23 03:27:45;;;;;;;14.98;5.32;;;7.90;71.80;;;;;;3559516;40;20140;-62
2021/04/23 03:30:16;;;;;;;16.85;4.93;;;7.90;71.90;;;;;;3559024;40;20022;-61
2021/04/23 03:32:42;;;;;;;11.10;4.43;;;8.00;71.40;;;;;;3559068;40;20033;-62
2021/04/23 03:35:09;;;;;;;13.32;5.30;;;8.00;71.40;;;;;;3558982;40;20034;-61
2021/04/23 03:37:35;;;;;;;12.90;5.45;;;8.10;71.20;;;;;;3558914;40;20036;-61
2021/04/23 03:40:01;;;;;;;14.90;5.70;;;8.10;71.10;;;;;;3558883;40;20029;-62
2021/04/23 03:42:27;;;;;;;12.52;5.38;;;8.10;71.10;;;;;;3559220;40;20179;-61
2021/04/23 03:44:54;;;;;;;15.98;5.40;;;8.10;71.50;;;;;;3559031;40;20099;-62
2021/04/23 03:47:21;;;;;;;11.65;5.10;;;8.20;71.20;;;;;;3556611;40;20403;-62
2021/04/23 03:49:47;;;;;;;11.95;5.03;;;8.20;71.00;;;;;;3558827;40;20702;-62
2021/04/23 03:52:12;;;;;;;11.75;5.20;;;8.20;70.70;;;;;;3558813;40;20030;-62
2021/04/23 03:54:38;;;;;;;14.98;5.03;;;8.20;70.60;;;;;;3559142;40;20029;-61
2021/04/23 03:57:05;;;;;;;8.90;4.88;;;8.20;71.00;;;;;;3556018;40;20034;-69
2021/04/23 03:59:31;;;;;;;17.23;5.75;;;8.20;70.60;;;;;;3561011;40;20046;-63
2021/04/23 04:01:57;;;;;;;13.57;6.32;;;8.10;70.90;;;;;;3559596;40;20311;-67
2021/04/23 04:04:23;;;;;;;14.80;6.18;;;8.10;71.00;;;;;;3559666;40;20041;-68
2021/04/23 04:06:49;;;;;;;11.73;5.57;;;8.10;70.60;;;;;;3558921;40;20127;-68
2021/04/23 04:09:15;;;;;;;12.85;4.97;;;8.10;71.20;;;;;;3558802;40;20034;-68
2021/04/23 04:11:40;;;;;;;12.75;4.60;;;8.10;70.80;;;;;;3558617;40;20029;-66
2021/04/23 04:14:06;;;;;;;14.25;5.50;;;8.20;70.50;;;;;;3558710;40;20272;-67
2021/04/23 04:16:32;;;;;;;12.50;5.32;;;8.20;70.20;;;;;;3558846;40;20099;-67
2021/04/23 04:18:57;;;;;;;12.88;5.25;;;8.10;70.60;;;;;;3558273;40;20026;-67
2021/04/23 04:21:24;;;;;;;15.35;5.35;;;8.10;71.00;;;;;;3554533;40;20033;-65
2021/04/23 04:23:50;;;;;;;10.98;5.50;;;8.10;70.70;;;;;;3558329;40;20030;-65
2021/04/23 04:26:16;;;;;;;14.00;5.32;;;8.20;71.00;;;;;;3557771;40;20026;-66
2021/04/23 04:28:41;;;;;;;17.00;5.47;;;8.20;71.80;;;;;;3558321;40;20040;-67
2021/04/23 04:31:07;;;;;;;10.05;5.70;;;8.20;70.80;;;;;;3558429;40;20039;-67
2021/04/23 04:33:33;;;;;;;11.77;5.53;;;8.20;71.10;;;;;;3560278;40;20036;-68
2021/04/23 04:35:58;;;;;;;12.60;5.82;;;8.20;71.40;;;;;;3557663;40;20055;-67
2021/04/23 04:38:25;;;;;;;11.70;4.78;;;8.20;70.90;;;;;;3558174;40;20041;-68
2021/04/23 04:40:52;;;;;;;9.32;4.95;;;8.10;70.80;;;;;;3557632;40;20033;-66
2021/04/23 04:43:19;;;;;;;16.38;5.22;;;8.10;70.90;;;;;;3558082;40;20635;-67
2021/04/23 04:45:47;;;;;;;16.98;5.50;;;8.10;71.00;;;;;;3558111;40;20033;-67
2021/04/23 04:48:13;;;;;;;15.32;5.50;;;8.10;71.20;;;;;;3558228;40;20085;-69
2021/04/23 04:50:46;;;;;;;18.30;5.90;;;8.20;71.20;;;;;;3557217;40;20037;-68
2021/04/23 04:53:12;;;;;;;9.63;4.75;;;8.10;71.30;;;;;;3557059;40;20434;-68
2021/04/23 04:55:40;;;;;;;12.02;4.68;;;8.20;71.10;;;;;;3557642;40;20044;-65
2021/04/23 04:58:08;;;;;;;13.77;5.68;;;8.20;70.80;;;;;;3557466;40;20033;-67
2021/04/23 05:00:36;;;;;;;11.77;4.95;;;8.20;71.10;;;;;;3556153;40;20033;-66
2021/04/23 05:03:02;;;;;;;15.40;5.90;;;8.10;70.50;;;;;;3558384;40;20138;-68
2021/04/23 05:05:31;;;;;;;18.15;6.13;;;8.10;71.00;;;;;;3558354;40;20054;-67
2021/04/23 05:07:57;;;;;;;13.43;5.90;;;8.10;70.90;;;;;;3558175;40;20131;-67
2021/04/23 05:10:23;;;;;;;13.77;5.32;;;8.20;71.30;;;;;;3557799;40;20073;-68
2021/04/23 05:12:49;;;;;;;18.00;5.55;;;8.20;71.20;;;;;;3557568;40;20509;-67
2021/04/23 05:15:17;;;;;;;12.85;5.47;;;8.20;71.00;;;;;;3558185;40;20052;-67
2021/04/23 05:17:43;;;;;;;14.25;5.15;;;8.20;71.00;;;;;;3556906;40;20599;-67
2021/04/23 05:20:11;;;;;;;10.60;4.80;;;8.30;71.10;;;;;;3557674;40;20654;-67
2021/04/23 05:22:37;;;;;;;18.27;5.57;;;8.20;70.50;;;;;;3557659;40;20034;-67
2021/04/23 05:25:07;;;;;;;17.33;4.95;;;8.30;70.90;;;;;;3558232;40;20045;-67
2021/04/23 05:27:33;;;;;;;11.43;4.90;;;8.30;70.80;;;;;;3555941;40;20021;-67
2021/04/23 05:29:59;;;;;;;12.77;5.75;;;8.40;70.70;;;;;;3557557;40;20455;-67
2021/04/23 05:32:25;;;;;;;14.45;5.30;;;8.40;70.60;;;;;;3557832;40;20026;-67
2021/04/23 05:34:50;;;;;;;12.82;4.47;;;8.50;70.10;;;;;;3557464;40;20034;-66
2021/04/23 05:37:16;;;;;;;13.15;4.90;;;8.50;70.50;;;;;;3559311;40;20029;-68
2021/04/23 05:39:44;;;;;;;16.17;5.90;;;8.60;70.20;;;;;;3557972;40;20030;-68
2021/04/23 05:42:11;;;;;;;13.93;5.38;;;8.60;69.70;;;;;;3558597;40;20025;-67
2021/04/23 05:44:37;;;;;;;12.50;5.13;;;8.50;69.80;;;;;;3558465;40;20042;-67
2021/04/23 05:47:04;;;;;;;12.02;5.13;;;8.50;69.50;;;;;;3558477;40;20516;-68
2021/04/23 05:49:31;;;;;;;14.73;4.90;;;8.50;69.50;;;;;;3558076;40;20697;-68
2021/04/23 05:51:58;;;;;;;12.00;4.93;;;8.60;69.90;;;;;;3558722;40;20040;-67
2021/04/23 05:54:24;;;;;;;9.55;4.57;;;8.60;69.80;;;;;;3559169;40;20033;-67
2021/04/23 05:56:49;;;;;;;12.75;4.72;;;8.70;69.80;;;;;;3557050;40;20033;-67
2021/04/23 05:59:15;;;;;;;9.57;3.85;;;8.70;69.80;;;;;;3559398;40;20033;-68
2021/04/23 06:01:41;;;;;;;12.35;4.70;;;8.70;69.20;;;;;;3559032;40;20037;-67
2021/04/23 06:04:07;;;;;;;10.90;4.22;;;8.80;68.80;;;;;;3559086;40;20018;-68
2021/04/23 06:06:32;;;;;;;11.27;4.88;;;8.80;68.30;;;;;;3560121;40;20040;-68
2021/04/23 06:08:58;;;;;;;11.93;4.18;;;8.80;68.90;;;;;;3560115;40;20415;-66
2021/04/23 06:11:25;;;;;;;10.43;4.80;;;8.70;68.40;;;;;;3559978;40;20033;-64
2021/04/23 06:13:51;;;;;;;11.27;4.72;;;8.80;69.10;;;;;;3560765;40;20111;-67
2021/04/23 06:16:16;;;;;;;19.02;5.30;;;8.80;69.30;;;;;;3565021;40;20049;-68
2021/04/23 06:18:43;;;;;;;16.88;5.25;;;8.80;69.10;;;;;;3563440;40;20022;-67
2021/04/23 06:21:09;;;;;;;13.18;4.72;;;8.90;68.00;;;;;;3560673;40;20069;-68
2021/04/23 06:23:37;;;;;;;9.20;3.88;;;8.90;68.50;;;;;;3560340;40;20448;-67
2021/04/23 06:26:03;;;;;;;12.05;4.90;;;8.90;67.80;;;;;;3559983;40;20022;-67
2021/04/23 06:28:29;;;;;;;9.55;4.20;;;8.90;66.90;;;;;;3559887;40;20040;-66
2021/04/23 06:30:56;;;;;;;11.43;4.10;;;9.00;66.50;;;;;;3559189;40;20354;-67
2021/04/23 06:33:25;;;;;;;9.75;4.03;;;9.00;67.70;;;;;;3559072;40;20041;-66
2021/04/23 06:35:50;;;;;;;12.73;3.88;;;9.00;67.00;;;;;;3559363;40;20048;-66
2021/04/23 06:38:16;;;;;;;9.85;3.42;;;9.10;66.10;;;;;;3559602;40;20026;-67
2021/04/23 06:40:42;;;;;;;11.20;3.80;;;9.10;66.10;;;;;;3559408;40;20030;-66
2021/04/23 06:43:08;;;;;;;13.02;3.97;;;9.20;66.10;;;;;;3559600;40;20041;-66
2021/04/23 06:45:35;;;;;;;10.43;3.03;;;9.30;64.10;;;;;;3558371;40;20472;-67
2021/04/23 06:48:02;;;;;;;13.20;3.72;;;9.40;64.40;;;;;;3558862;40;20777;-68
2021/04/23 06:50:28;;;;;;;9.77;3.35;;;9.40;63.80;;;;;;3559363;40;20029;-66
2021/04/23 06:52:54;;;;;;;9.43;4.10;;;9.40;63.90;;;;;;3559665;40;20081;-65
2021/04/23 06:55:21;;;;;;;11.23;3.83;;;9.40;64.40;;;;;;3560067;40;20422;-66
2021/04/23 06:57:47;;;;;;;12.23;3.80;;;9.50;63.80;;;;;;3560064;40;20371;-66
2021/04/23 07:00:17;;;;;;;8.60;3.38;;;9.60;63.40;;;;;;3559634;40;20025;-66
2021/04/23 07:02:43;;;;;;;12.70;3.63;;;9.70;62.60;;;;;;3559769;40;20104;-66
2021/04/23 07:05:10;;;;;;;12.25;3.45;;;9.80;62.30;;;;;;3557479;40;20543;-67
2021/04/23 07:07:36;;;;;;;10.88;3.22;;;9.90;61.30;;;;;;3559377;40;20033;-66
2021/04/23 07:10:03;;;;;;;14.73;3.90;;;10.00;60.30;;;;;;3558635;40;20021;-67
2021/04/23 07:12:28;;;;;;;10.85;3.67;;;10.10;59.90;;;;;;3559716;40;20037;-65
2021/04/23 07:14:54;;;;;;;5.70;3.17;;;10.20;59.10;;;;;;3559324;40;20610;-67
2021/04/23 07:17:20;;;;;;;11.48;2.80;;;10.40;58.30;;;;;;3559211;40;20382;-65
2021/04/23 07:19:48;;;;;;;7.40;2.72;;;10.40;58.20;;;;;;3558520;40;20029;-65
2021/04/23 07:22:15;;;;;;;7.65;2.55;;;10.40;58.80;;;;;;3558750;40;20116;-66
2021/04/23 07:24:42;;;;;;;13.25;3.67;;;10.60;58.20;;;;;;3558869;40;20048;-66
2021/04/23 07:27:08;;;;;;;23.45;4.35;;;10.70;57.30;;;;;;3558742;40;20449;-66
2021/04/23 07:29:34;;;;;;;12.52;3.38;;;10.90;57.50;;;;;;3558961;40;20131;-67
2021/04/23 07:32:00;;;;;;;9.35;2.75;;;11.00;56.50;;;;;;3558685;40;20348;-66
2021/04/23 07:34:25;;;;;;;10.40;3.08;;;11.10;57.20;;;;;;3556977;40;20805;-68
2021/04/23 07:36:51;;;;;;;8.43;2.55;;;11.10;56.30;;;;;;3558957;40;20446;-68
2021/04/23 07:39:17;;;;;;;13.63;2.97;;;11.10;56.50;;;;;;3558493;40;20038;-68
2021/04/23 07:41:43;;;;;;;8.18;3.05;;;11.10;55.80;;;;;;3558318;40;20048;-67
2021/04/23 07:44:09;;;;;;;13.15;3.13;;;11.20;56.60;;;;;;3556342;40;20029;-72
2021/04/23 07:46:35;;;;;;;8.75;2.67;;;11.20;55.80;;;;;;3558517;40;20099;-73
2021/04/23 07:49:01;;;;;;;10.07;3.13;;;11.20;56.40;;;;;;3558997;40;20033;-67
2021/04/23 07:51:27;;;;;;;8.00;2.63;;;11.10;54.90;;;;;;3558488;40;20044;-67
2021/04/23 07:53:52;;;;;;;11.18;2.80;;;11.10;56.00;;;;;;3557534;40;20025;-69
2021/04/23 07:56:18;;;;;;;10.05;3.25;;;11.20;56.50;;;;;;3556918;40;20111;-67
2021/04/23 07:58:44;;;;;;;10.90;2.45;;;11.40;55.70;;;;;;3558989;40;20876;-67
2021/04/23 08:01:09;;;;;;;11.15;2.45;;;11.50;55.00;;;;;;3558537;40;20494;-66
2021/04/23 08:03:35;;;;;;;12.25;2.90;;;11.40;55.10;;;;;;3558275;40;20037;-67
2021/04/23 08:06:01;;;;;;;17.23;3.75;;;11.40;54.60;;;;;;3559005;40;20030;-67
2021/04/23 08:08:26;;;;;;;8.43;3.20;;;11.60;55.50;;;;;;3556810;40;20021;-66
2021/04/23 08:10:52;;;;;;;13.65;4.38;;;11.80;53.90;;;;;;3558669;40;20123;-67
2021/04/23 08:13:18;;;;;;;9.85;2.60;;;11.90;54.80;;;;;;3559113;40;20033;-69
2021/04/23 08:15:44;;;;;;;17.27;3.50;;;12.00;53.20;;;;;;3559056;40;20033;-67
2021/04/23 08:18:10;;;;;;;13.00;4.95;;;12.10;53.30;;;;;;3558678;40;20584;-67
2021/04/23 08:20:36;;;;;;;14.88;7.22;;;12.30;53.70;;;;;;3557815;40;20045;-67
2021/04/23 08:23:02;;;;;;;9.32;3.50;;;12.60;52.30;;;;;;3559370;40;20025;-67
2021/04/23 08:25:27;;;;;;;7.05;3.00;;;12.80;52.80;;;;;;3558993;40;20045;-67
2021/04/23 08:27:53;;;;;;;11.02;2.80;;;12.80;50.90;;;;;;3559311;40;20034;-67
2021/04/23 08:30:22;;;;;;;10.60;2.90;;;12.80;51.60;;;;;;3557478;40;20535;-67
2021/04/23 08:32:49;;;;;;;10.88;3.05;;;12.90;51.60;;;;;;3558368;40;20486;-67
2021/04/23 08:35:15;;;;;;;9.68;2.67;;;13.40;51.40;;;;;;3558725;40;20502;-67
2021/04/23 08:37:42;;;;;;;11.63;2.90;;;13.80;49.70;;;;;;3557348;40;20053;-67
2021/04/23 08:40:10;;;;;;;7.28;2.58;;;13.90;47.60;;;;;;3558094;40;20119;-67
2021/04/23 08:42:37;;;;;;;14.10;3.10;;;14.00;49.10;;;;;;3556126;40;20025;-67
2021/04/23 08:45:09;;;;;;;10.02;2.97;;;14.30;47.80;;;;;;3558758;40;20069;-69
2021/04/23 08:47:38;;;;;;;8.88;2.35;;;14.90;48.10;;;;;;3558520;40;20632;-67
2021/04/23 08:50:05;;;;;;;11.57;2.40;;;15.70;44.50;;;;;;3556802;40;20060;-67
2021/04/23 08:52:31;;;;;;;11.15;3.88;;;16.50;44.20;;;;;;3564020;40;20042;-67
2021/04/23 08:54:57;;;;;;;6.97;2.58;;;16.70;42.20;;;;;;3558028;40;20741;-67
2021/04/23 08:57:24;;;;;;;13.98;4.15;;;16.30;42.80;;;;;;3558977;40;20045;-67
2021/04/23 08:59:50;;;;;;;12.10;3.75;;;15.60;43.90;;;;;;3558058;40;20070;-67
2021/04/23 09:02:16;;;;;;;16.83;6.05;;;15.10;46.50;;;;;;3555008;40;20033;-67
2021/04/23 09:04:42;;;;;;;8.70;4.18;;;15.20;45.90;;;;;;3558636;40;20040;-67
2021/04/23 09:07:08;;;;;;;12.70;3.45;;;15.20;45.60;;;;;;3558297;40;20411;-68
2021/04/23 09:09:42;;;;;;;7.72;2.30;;;15.10;46.80;;;;;;3556963;40;20037;-68
2021/04/23 09:12:25;;;;;;;7.93;3.17;;;15.40;44.70;;;;;;3559255;40;20028;-68
2021/04/23 09:14:53;;;;;;;9.18;3.17;;;16.00;42.90;;;;;;3559614;40;20056;-67
2021/04/23 09:17:26;;;;;;;9.27;3.00;;;16.50;44.00;;;;;;3559406;40;20146;-67
2021/04/23 09:19:54;;;;;;;5.18;2.65;;;17.00;41.90;;;;;;3559404;40;20508;-67
2021/04/23 09:22:30;;;;;;;10.30;3.38;;;17.00;41.90;;;;;;3559847;40;20789;-67
2021/04/23 09:25:13;;;;;;;11.57;4.10;;;17.00;43.00;;;;;;3559270;40;20101;-67
2021/04/23 09:27:42;;;;;;;9.80;3.28;;;16.90;41.80;;;;;;3560064;40;20038;-68
2021/04/23 09:30:11;;;;;;;7.43;2.60;;;17.00;42.30;;;;;;3558823;40;20045;-68
2021/04/23 09:32:41;;;;;;;8.45;2.55;;;16.90;42.20;;;;;;3559104;40;20029;-68
2021/04/23 09:35:16;;;;;;;6.20;2.10;;;16.90;41.60;;;;;;3558307;40;20036;-68
2021/04/23 09:37:52;;;;;;;9.88;2.38;;;16.80;41.10;;;;;;3564782;40;20081;-68
2021/04/23 09:40:30;;;;;;;8.45;2.67;;;16.80;40.60;;;;;;3559226;40;20100;-69
2021/04/23 09:43:00;;;;;;;9.82;2.17;;;16.50;41.60;;;;;;3558702;40;20036;-68
2021/04/23 09:45:31;;;;;;;6.60;2.05;;;16.20;43.50;;;;;;3558616;40;20158;-68
2021/04/23 09:47:57;;;;;;;8.48;2.22;;;16.30;42.90;;;;;;3559151;40;20138;-68
2021/04/23 09:50:38;;;;;;;9.23;3.33;;;16.30;42.70;;;;;;3559372;40;20065;-68
2021/04/23 09:53:06;;;;;;;6.65;2.38;;;16.30;42.70;;;;;;3559266;40;20085;-68
2021/04/23 09:55:33;;;;;;;11.35;2.10;;;16.40;43.20;;;;;;3559924;40;20502;-68
2021/04/23 09:58:02;;;;;;;7.72;2.35;;;16.70;40.60;;;;;;3560048;40;20548;-67
2021/04/23 10:00:30;;;;;;;7.35;2.10;;;17.30;39.90;;;;;;3558970;40;20041;-68
2021/04/23 10:02:59;;;;;;;7.55;2.30;;;17.70;39.10;;;;;;3559827;40;20099;-68
2021/04/23 10:05:34;;;;;;;7.93;2.67;;;18.20;38.70;;;;;;3557147;40;20116;-68
2021/04/23 10:08:25;;;;;;;6.72;1.98;;;18.70;38.40;;;;;;3557483;40;20036;-67
2021/04/23 10:10:53;;;;;;;10.88;3.92;;;18.30;37.70;;;;;;3558896;40;20174;-67
2021/04/23 10:13:30;;;;;;;11.98;3.33;;;18.10;39.00;;;;;;3559603;40;20100;-67
2021/04/23 10:15:56;;;;;;;9.35;3.58;;;18.40;37.00;;;;;;3558116;40;20036;-68
2021/04/23 10:18:22;;;;;;;11.98;4.53;;;18.10;37.80;;;;;;3559659;40;20237;-67
2021/04/23 10:20:50;;;;;;;9.45;4.07;;;17.80;40.00;;;;;;3559049;40;20111;-67
2021/04/23 10:23:18;;;;;;;7.38;2.30;;;17.40;40.10;;;;;;3559039;40;20041;-68
2021/04/23 10:25:45;;;;;;;9.70;2.83;;;17.10;40.90;;;;;;3559570;40;20062;-64
2021/04/23 10:28:15;;;;;;;7.45;2.40;;;16.90;40.50;;;;;;3559289;40;20578;-65
2021/04/23 10:30:42;;;;;;;10.52;2.35;;;16.70;40.90;;;;;;3559404;40;20042;-67
2021/04/23 10:33:11;;;;;;;5.78;2.33;;;16.70;42.40;;;;;;3560062;40;20029;-67
2021/04/23 10:35:38;;;;;;;7.32;2.33;;;16.80;41.70;;;;;;3559161;40;20076;-67
2021/04/23 10:38:17;;;;;;;7.28;2.40;;;16.80;40.80;;;;;;3559331;40;20069;-66
2021/04/23 10:40:52;;;;;;;9.48;2.20;;;16.70;40.40;;;;;;3557953;40;20030;-67
2021/04/23 10:43:19;;;;;;;7.60;2.22;;;16.50;42.30;;;;;;3558751;40;20433;-66
2021/04/23 10:45:49;;;;;;;14.82;5.30;;;16.50;42.00;;;;;;3558602;40;20695;-72
2021/04/23 10:48:15;;;;;;;11.95;3.38;;;16.50;40.20;;;;;;3557564;40;20733;-68
2021/04/23 10:50:51;;;;;;;17.02;6.88;;;16.20;42.50;;;;;;3558809;40;20049;-68
2021/04/23 10:53:18;;;;;;;6.80;2.03;;;16.00;41.80;;;;;;3562869;40;20045;-68
2021/04/23 10:55:50;;;;;;;9.93;3.85;;;15.90;42.00;;;;;;3555355;40;20054;-69
2021/04/23 10:58:37;;;;;;;8.48;2.22;;;15.90;42.00;;;;;;3559263;40;20517;-69
2021/04/23 11:01:21;;;;;;;7.68;3.20;;;16.30;42.40;;;;;;3559278;40;20034;-69
2021/04/23 11:04:03;;;;;;;6.50;2.22;;;17.00;40.30;;;;;;3559275;40;20037;-68
2021/04/23 11:06:31;;;;;;;5.93;2.00;;;17.60;38.40;;;;;;3559401;40;20083;-69
2021/04/23 11:09:00;;;;;;;8.90;2.90;;;17.30;37.90;;;;;;3558443;40;20075;-69
2021/04/23 11:11:30;;;;;;;9.73;2.67;;;17.10;39.20;;;;;;3557509;40;20052;-69
2021/04/23 11:14:16;;;;;;;10.68;3.17;;;16.90;39.40;;;;;;3559584;40;20057;-67
2021/04/23 11:16:42;;;;;;;9.30;2.20;;;16.80;39.80;;;;;;3549308;40;20033;-67
2021/04/23 11:19:20;;;;;;;5.45;1.58;;;16.70;40.00;;;;;;3560072;40;20025;-68
2021/04/23 11:22:03;;;;;;;9.93;2.85;;;16.60;40.40;;;;;;3553403;40;20047;-68
2021/04/23 11:24:29;;;;;;;9.23;1.90;;;16.50;40.90;;;;;;3558709;40;20088;-68
2021/04/23 11:29:23;;;;;;;5.95;1.50;;;16.50;39.90;;;;;;3558923;40;20509;-68
2021/04/23 11:32:09;;;;;;;6.80;2.33;;;16.40;39.60;;;;;;3558801;40;20334;-69
2021/04/23 11:34:47;;;;;;;4.45;1.85;;;16.40;41.20;;;;;;3552339;40;20728;-68
2021/04/23 11:37:15;;;;;;;5.45;1.35;;;16.30;39.80;;;;;;3557898;40;20620;-68
2021/04/23 11:39:46;;;;;;;6.97;2.53;;;16.10;40.30;;;;;;3558037;40;20624;-68
2021/04/23 11:42:19;;;;;;;8.55;1.60;;;16.10;40.90;;;;;;3559496;40;20737;-68
2021/04/23 11:44:52;;;;;;;7.70;1.83;;;16.10;39.30;;;;;;3556867;40;20052;-68
2021/04/23 11:47:27;;;;;;;6.35;1.42;;;16.20;40.60;;;;;;3564296;40;20414;-69
2021/04/23 11:50:09;;;;;;;3.67;1.58;;;16.40;39.30;;;;;;3558754;40;20843;-69
2021/04/23 11:52:36;;;;;;;7.97;1.95;;;16.40;40.10;;;;;;3557877;40;20033;-69
2021/04/23 11:55:06;;;;;;;3.50;1.50;;;16.40;40.80;;;;;;3558812;40;20045;-69
2021/04/23 11:57:33;;;;;;;8.00;1.77;;;16.30;40.50;;;;;;3548397;40;20048;-68
2021/04/23 12:00:20;;;;;;;9.88;2.22;;;16.30;38.70;;;;;;3558637;40;20029;-68
2021/04/23 12:02:55;;;;;;;7.32;1.70;;;16.50;40.20;;;;;;3559266;40;20033;-69
2021/04/23 12:05:22;;;;;;;5.87;1.60;;;16.50;39.90;;;;;;3558409;40;20043;-69
2021/04/23 12:07:48;;;;;;;7.05;2.00;;;16.60;39.50;;;;;;3558861;40;20439;-69
2021/04/23 12:10:15;;;;;;;6.50;1.92;;;16.60;38.60;;;;;;3557310;40;20115;-67
2021/04/23 12:12:44;;;;;;;10.10;1.85;;;16.40;38.00;;;;;;3557386;40;20048;-68
2021/04/23 12:15:22;;;;;;;6.55;1.48;;;16.40;38.80;;;;;;3558608;40;20034;-68
2021/04/23 12:17:48;;;;;;;6.72;1.45;;;16.50;39.20;;;;;;3558458;40;20036;-68
2021/04/23 12:20:22;;;;;;;9.05;1.60;;;16.60;39.60;;;;;;3557950;40;20037;-68
2021/04/23 12:22:49;;;;;;;3.65;1.42;;;16.70;38.00;;;;;;3557113;40;20095;-68
2021/04/23 12:25:32;;;;;;;7.35;1.52;;;16.60;38.80;;;;;;3558143;40;20030;-68
2021/04/23 12:28:16;;;;;;;7.93;2.05;;;16.60;38.90;;;;;;3558243;40;20801;-69
2021/04/23 12:30:42;;;;;;;10.50;1.65;;;16.50;38.10;;;;;;3557990;40;20423;-68
2021/04/23 12:33:07;;;;;;;7.57;1.63;;;16.30;39.20;;;;;;3557276;40;20152;-68
2021/04/23 12:35:41;;;;;;;8.20;2.15;;;16.10;39.00;;;;;;3557940;40;20091;-68
2021/04/23 12:38:10;;;;;;;6.00;1.60;;;16.10;38.70;;;;;;3558372;40;20088;-69
2021/04/23 12:40:44;;;;;;;4.60;1.40;;;16.00;38.40;;;;;;3558602;40;20029;-69
2021/04/23 12:43:22;;;;;;;5.30;1.42;;;15.90;38.70;;;;;;3558354;40;20029;-68
2021/04/23 12:45:49;;;;;;;10.48;1.85;;;15.80;38.80;;;;;;3557408;40;20049;-68
2021/04/23 12:48:16;;;;;;;7.93;1.70;;;15.80;39.40;;;;;;3558650;40;20034;-68
2021/04/23 12:50:44;;;;;;;8.10;1.60;;;16.10;40.60;;;;;;3556438;40;20030;-68
2021/04/23 12:53:11;;;;;;;9.43;1.73;;;16.20;39.60;;;;;;3559110;40;20093;-67
2021/04/23 12:55:38;;;;;;;6.93;1.52;;;16.30;39.60;;;;;;3558611;40;20041;-67